createdAt,value
2018-02-19T00:00:37.962Z,2.31
2018-02-19T00:03:03.862Z,2.17
2018-02-19T00:05:29.695Z,1.98
2018-02-19T00:07:55.630Z,1.93
2018-02-19T00:10:21.514Z,1.89
2018-02-19T00:12:47.360Z,1.83
2018-02-19T00:15:13.204Z,1.62
2018-02-19T00:17:39.164Z,1.54
2018-02-19T00:20:05.025Z,1.50
2018-02-19T00:22:30.869Z,1.34
2018-02-19T00:24:56.769Z,1.22
2018-02-19T00:27:22.609Z,1.16
2018-02-19T00:29:48.458Z,1.11
2018-02-19T00:32:14.358Z,1.09
2018-02-19T00:34:40.192Z,1.13
2018-02-19T00:37:06.033Z,1.10
2018-02-19T00:39:31.944Z,0.92
2018-02-19T00:41:57.785Z,0.87
2018-02-19T00:44:23.640Z,0.86
2018-02-19T00:46:49.537Z,0.72
2018-02-19T00:49:15.377Z,0.59
2018-02-19T00:51:41.214Z,0.61
2018-02-19T00:54:07.181Z,0.61
2018-02-19T00:56:33.081Z,0.53
2018-02-19T00:58:58.925Z,0.56
2018-02-19T01:01:24.825Z,0.50
2018-02-19T01:03:50.656Z,0.43
2018-02-19T01:06:16.489Z,0.45
2018-02-19T01:08:42.392Z,0.42
2018-02-19T01:11:08.242Z,0.54
2018-02-19T01:13:34.076Z,0.46
2018-02-19T01:15:59.955Z,0.50
2018-02-19T01:18:25.802Z,0.47
2018-02-19T01:20:51.632Z,0.53
2018-02-19T01:23:17.507Z,0.56
2018-02-19T01:25:43.361Z,0.51
2018-02-19T01:28:09.204Z,0.49
2018-02-19T01:30:35.961Z,0.49
2018-02-19T01:33:01.814Z,0.49
2018-02-19T01:35:27.662Z,0.42
2018-02-19T01:37:53.557Z,0.37
2018-02-19T01:40:19.409Z,0.31
2018-02-19T01:42:45.244Z,0.24
2018-02-19T01:45:11.145Z,0.29
2018-02-19T01:47:36.985Z,0.22
2018-02-19T01:50:15.134Z,0.22
2018-02-19T01:52:41.005Z,0.23
2018-02-19T01:55:06.841Z,0.29
2018-02-19T01:57:32.797Z,0.21
2018-02-19T01:59:58.648Z,0.29
2018-02-19T02:02:24.496Z,0.41
2018-02-19T02:04:50.368Z,0.37
2018-02-19T02:07:16.195Z,0.38
2018-02-19T02:09:42.061Z,0.40
2018-02-19T02:12:07.952Z,0.48
2018-02-19T02:14:33.802Z,0.45
2018-02-19T02:16:59.649Z,0.50
2018-02-19T02:19:25.536Z,0.51
2018-02-19T02:21:51.397Z,0.45
2018-02-19T02:24:17.238Z,0.53
2018-02-19T02:26:43.125Z,0.58
2018-02-19T02:29:08.981Z,0.65
2018-02-19T02:31:34.825Z,0.68
2018-02-19T02:34:00.832Z,0.72
2018-02-19T02:36:26.694Z,0.76
2018-02-19T02:38:52.538Z,0.71
2018-02-19T02:41:18.426Z,0.75
2018-02-19T02:43:44.277Z,0.73
2018-02-19T02:46:10.146Z,0.80
2018-02-19T02:48:36.042Z,0.83
2018-02-19T02:51:01.879Z,0.82
2018-02-19T02:53:27.738Z,0.94
2018-02-19T02:55:53.634Z,0.82
2018-02-19T02:58:19.535Z,0.74
2018-02-19T03:00:45.388Z,0.74
2018-02-19T03:03:11.260Z,0.73
2018-02-19T03:05:37.105Z,0.63
2018-02-19T03:08:02.958Z,0.62
2018-02-19T03:10:28.839Z,0.61
2018-02-19T03:12:54.681Z,0.57
2018-02-19T03:15:20.521Z,0.62
2018-02-19T03:17:46.424Z,0.64
2018-02-19T03:20:12.276Z,0.53
2018-02-19T03:22:38.126Z,0.50
2018-02-19T03:25:04.004Z,0.45
2018-02-19T03:27:29.857Z,0.47
2018-02-19T03:29:55.692Z,0.36
2018-02-19T03:32:21.580Z,0.44
2018-02-19T03:34:47.428Z,0.34
2018-02-19T03:37:13.268Z,0.39
2018-02-19T03:39:39.177Z,0.29
2018-02-19T03:42:05.012Z,0.38
2018-02-19T03:44:30.861Z,0.38
2018-02-19T03:46:56.808Z,0.26
2018-02-19T03:49:22.647Z,0.38
2018-02-19T03:51:48.482Z,0.30
2018-02-19T03:54:14.457Z,0.32
2018-02-19T03:56:40.317Z,0.19
2018-02-19T03:59:06.208Z,0.33
2018-02-19T04:01:32.110Z,0.28
2018-02-19T04:03:57.947Z,0.27
2018-02-19T04:06:23.787Z,0.25
2018-02-19T04:08:49.671Z,0.26
2018-02-19T04:11:15.516Z,0.11
2018-02-19T04:13:41.349Z,0.16
2018-02-19T04:16:07.402Z,0.14
2018-02-19T04:18:33.257Z,0.13
2018-02-19T04:20:59.110Z,0.10
2018-02-19T04:23:25.088Z,0.03
2018-02-19T04:25:50.938Z,0.00
2018-02-19T04:28:16.771Z,-0.06
2018-02-19T04:30:42.640Z,-0.06
2018-02-19T04:33:08.481Z,-0.04
2018-02-19T04:35:34.333Z,-0.12
2018-02-19T04:38:00.209Z,-0.17
2018-02-19T04:40:26.169Z,-0.08
2018-02-19T04:42:52.030Z,-0.21
2018-02-19T04:45:19.832Z,-0.35
2018-02-19T04:47:45.684Z,-0.26
2018-02-19T04:50:11.546Z,-0.32
2018-02-19T04:52:37.518Z,-0.32
2018-02-19T04:55:03.380Z,-0.30
2018-02-19T04:57:29.242Z,-0.34
2018-02-19T04:59:55.185Z,-0.39
2018-02-19T05:02:21.020Z,-0.34
2018-02-19T05:04:46.866Z,-0.40
2018-02-19T05:07:12.754Z,-0.43
2018-02-19T05:09:38.609Z,-0.48
2018-02-19T05:12:04.454Z,-0.52
2018-02-19T05:14:30.336Z,-0.50
2018-02-19T05:16:56.184Z,-0.45
2018-02-19T05:19:22.091Z,-0.45
2018-02-19T05:21:47.964Z,-0.43
2018-02-19T05:24:13.800Z,-0.40
2018-02-19T05:26:39.640Z,-0.35
2018-02-19T05:29:05.567Z,-0.44
2018-02-19T05:31:31.463Z,-0.52
2018-02-19T05:33:57.310Z,-0.48
2018-02-19T05:36:23.283Z,-0.49
2018-02-19T05:38:49.121Z,-0.50
2018-02-19T05:41:14.969Z,-0.53
2018-02-19T05:43:40.857Z,-0.49
2018-02-19T05:46:06.703Z,-0.44
2018-02-19T05:48:32.536Z,-0.42
2018-02-19T05:50:58.444Z,-0.43
2018-02-19T05:53:24.282Z,-0.49
2018-02-19T05:55:50.188Z,-0.33
2018-02-19T06:01:09.968Z,-0.34
2018-02-19T06:03:35.853Z,-0.36
2018-02-19T06:06:01.790Z,-0.36
2018-02-19T06:08:27.628Z,-0.37
2018-02-19T06:10:53.521Z,-0.32
2018-02-19T06:13:19.454Z,-0.27
2018-02-19T06:15:45.298Z,-0.33
2018-02-19T06:18:11.177Z,-0.42
2018-02-19T06:20:37.020Z,-0.39
2018-02-19T06:23:02.890Z,-0.39
2018-02-19T06:25:28.969Z,-0.45
2018-02-19T06:27:54.857Z,-0.43
2018-02-19T06:30:20.705Z,-0.53
2018-02-19T06:32:46.580Z,-0.51
2018-02-19T06:35:12.424Z,-0.59
2018-02-19T06:37:38.347Z,-0.50
2018-02-19T06:40:04.237Z,-0.50
2018-02-19T06:42:30.067Z,-0.50
2018-02-19T06:44:55.909Z,-0.43
2018-02-19T06:47:22.040Z,-0.40
2018-02-19T06:49:47.974Z,-0.43
2018-02-19T06:52:13.817Z,-0.35
2018-02-19T06:54:39.707Z,-0.29
2018-02-19T06:57:05.548Z,-0.18
2018-02-19T06:59:31.384Z,-0.16
2018-02-19T07:01:57.336Z,-0.07
2018-02-19T07:04:23.185Z,-0.11
2018-02-19T07:06:49.023Z,-0.13
2018-02-19T07:09:15.232Z,-0.10
2018-02-19T07:11:41.075Z,-0.08
2018-02-19T07:14:06.989Z,0.11
2018-02-19T07:16:32.938Z,0.06
2018-02-19T07:18:58.767Z,0.18
2018-02-19T07:21:24.601Z,0.27
2018-02-19T07:23:50.498Z,0.38
2018-02-19T07:26:16.444Z,0.42
2018-02-19T07:28:42.276Z,0.47
2018-02-19T07:31:08.167Z,0.58
2018-02-19T07:33:34.014Z,0.57
2018-02-19T07:35:59.853Z,0.66
2018-02-19T07:38:26.635Z,0.64
2018-02-19T07:40:52.485Z,0.68
2018-02-19T07:43:18.322Z,0.77
2018-02-19T07:45:44.255Z,0.84
2018-02-19T07:48:10.093Z,0.91
2018-02-19T07:50:36.093Z,0.97
2018-02-19T07:53:01.964Z,1.21
2018-02-19T07:55:27.846Z,1.28
2018-02-19T07:57:53.708Z,1.44
2018-02-19T08:00:19.623Z,1.49
2018-02-19T08:02:45.569Z,1.55
2018-02-19T08:05:11.421Z,1.68
2018-02-19T08:07:37.437Z,1.76
2018-02-19T08:10:03.292Z,1.84
2018-02-19T08:12:29.154Z,1.94
2018-02-19T08:14:55.133Z,1.94
2018-02-19T08:17:20.976Z,2.00
2018-02-19T08:19:46.815Z,2.10
2018-02-19T08:22:12.776Z,2.25
2018-02-19T08:24:38.629Z,2.36
2018-02-19T08:27:04.585Z,2.42
2018-02-19T08:29:30.526Z,2.48
2018-02-19T08:31:56.426Z,2.53
2018-02-19T08:34:22.256Z,2.62
2018-02-19T08:36:48.136Z,2.70
2018-02-19T08:39:14.071Z,2.80
2018-02-19T08:41:39.926Z,3.03
2018-02-19T08:44:05.973Z,3.10
2018-02-19T08:46:31.888Z,3.14
2018-02-19T08:48:57.768Z,3.17
2018-02-19T08:51:23.733Z,3.31
2018-02-19T08:53:49.569Z,3.32
2018-02-19T08:56:15.915Z,3.34
2018-02-19T08:58:41.806Z,3.39
2018-02-19T09:01:07.648Z,3.52
2018-02-19T09:03:33.638Z,3.57
2018-02-19T09:05:59.529Z,3.62
2018-02-19T09:08:25.441Z,3.61
2018-02-19T09:10:51.282Z,3.81
2018-02-19T09:13:17.160Z,3.95
2018-02-19T09:15:43.088Z,4.13
2018-02-19T09:18:08.929Z,4.42
2018-02-19T09:20:35.105Z,4.52
2018-02-19T09:23:00.974Z,4.80
2018-02-19T09:25:26.863Z,4.93
2018-02-19T09:27:52.869Z,4.79
2018-02-19T09:30:18.704Z,4.92
2018-02-19T09:32:44.597Z,5.05
2018-02-19T09:35:10.494Z,5.21
2018-02-19T09:37:36.336Z,5.27
2018-02-19T09:40:02.278Z,5.37
2018-02-19T09:42:28.186Z,5.56
2018-02-19T09:44:54.076Z,5.90
2018-02-19T09:47:19.924Z,6.12
2018-02-19T09:49:45.837Z,6.49
2018-02-19T09:52:11.772Z,6.08
2018-02-19T09:54:37.739Z,6.40
2018-02-19T09:57:03.693Z,6.38
2018-02-19T09:59:29.534Z,6.66
2018-02-19T10:01:55.372Z,7.01
2018-02-19T10:04:21.399Z,7.54
2018-02-19T10:06:47.267Z,8.28
2018-02-19T10:09:13.157Z,7.89
2018-02-19T10:11:39.028Z,7.48
2018-02-19T10:14:04.889Z,7.47
2018-02-19T10:16:30.905Z,8.73
2018-02-19T10:18:56.813Z,9.37
2018-02-19T10:21:22.706Z,9.89
2018-02-19T10:23:48.536Z,10.03
2018-02-19T10:26:14.472Z,9.11
2018-02-19T10:28:40.412Z,9.05
2018-02-19T10:31:06.248Z,8.94
2018-02-19T10:33:32.197Z,8.84
2018-02-19T10:35:58.038Z,8.98
2018-02-19T10:38:23.868Z,9.05
2018-02-19T10:40:49.862Z,9.12
2018-02-19T10:43:15.712Z,8.76
2018-02-19T10:45:41.599Z,8.92
2018-02-19T10:48:07.665Z,8.76
2018-02-19T10:50:33.506Z,8.50
2018-02-19T10:52:59.423Z,8.34
2018-02-19T10:55:25.358Z,8.10
2018-02-19T10:57:51.243Z,8.25
2018-02-19T11:00:23.202Z,8.19
2018-02-19T11:02:49.098Z,8.14
2018-02-19T11:05:15.028Z,7.78
2018-02-19T11:07:40.856Z,8.01
2018-02-19T11:10:06.796Z,8.21
2018-02-19T11:12:32.641Z,8.17
2018-02-19T11:14:58.468Z,8.08
2018-02-19T11:17:24.432Z,7.98
2018-02-19T11:19:50.275Z,7.81
2018-02-19T11:22:16.160Z,7.76
2018-02-19T11:24:42.049Z,7.72
2018-02-19T11:27:07.898Z,7.86
2018-02-19T11:29:33.826Z,7.53
2018-02-19T11:31:59.788Z,7.60
2018-02-19T11:34:25.684Z,7.67
2018-02-19T11:36:51.524Z,7.81
2018-02-19T11:39:17.417Z,7.92
2018-02-19T11:41:43.336Z,7.92
2018-02-19T11:44:09.202Z,8.04
2018-02-19T11:46:35.152Z,7.84
2018-02-19T11:49:01.009Z,7.97
2018-02-19T11:51:26.849Z,8.26
2018-02-19T11:53:52.825Z,8.45
2018-02-19T11:56:18.752Z,8.57
2018-02-19T11:58:44.644Z,8.56
2018-02-19T12:01:10.524Z,8.60
2018-02-19T12:03:36.366Z,8.64
2018-02-19T12:06:02.442Z,8.82
2018-02-19T12:08:28.326Z,8.69
2018-02-19T12:10:54.221Z,8.62
2018-02-19T12:13:20.070Z,8.72
2018-02-19T12:15:45.968Z,8.81
2018-02-19T12:18:11.897Z,8.83
2018-02-19T12:20:37.829Z,8.74
2018-02-19T12:23:03.861Z,8.80
2018-02-19T12:25:29.730Z,8.65
2018-02-19T12:27:55.590Z,8.48
2018-02-19T12:30:21.592Z,8.61
2018-02-19T12:32:47.462Z,8.69
2018-02-19T12:35:13.358Z,8.79
2018-02-19T12:37:39.245Z,8.98
2018-02-19T12:40:05.105Z,9.02
2018-02-19T12:42:31.037Z,8.71
2018-02-19T12:44:56.928Z,8.50
2018-02-19T12:47:22.829Z,8.89
2018-02-19T12:49:48.778Z,8.98
2018-02-19T12:52:14.972Z,9.02
2018-02-19T12:54:40.907Z,8.97
2018-02-19T12:57:06.773Z,8.85
2018-02-19T12:59:32.712Z,8.80
2018-02-19T13:01:58.552Z,8.64
2018-02-19T13:04:24.402Z,8.38
2018-02-19T13:06:50.368Z,8.35
2018-02-19T13:09:16.217Z,8.38
2018-02-19T13:11:42.148Z,8.54
2018-02-19T13:14:08.032Z,8.68
2018-02-19T13:16:33.940Z,8.77
2018-02-19T13:18:59.890Z,8.84
2018-02-19T13:21:25.773Z,8.43
2018-02-19T13:23:51.674Z,8.37
2018-02-19T13:26:17.529Z,8.31
2018-02-19T13:28:43.412Z,7.96
2018-02-19T13:31:09.347Z,7.84
2018-02-19T13:33:35.213Z,8.01
2018-02-19T13:36:01.144Z,8.09
2018-02-19T13:38:26.981Z,8.16
2018-02-19T13:40:52.840Z,8.15
2018-02-19T13:43:19.674Z,8.07
2018-02-19T13:45:45.511Z,8.14
2018-02-19T13:48:11.421Z,8.15
2018-02-19T13:50:37.308Z,8.26
2018-02-19T13:53:03.159Z,8.29
2018-02-19T13:55:29.113Z,8.53
2018-02-19T13:57:54.992Z,8.51
2018-02-19T14:00:20.909Z,8.42
2018-02-19T14:02:46.772Z,8.35
2018-02-19T14:05:12.673Z,8.40
2018-02-19T14:07:38.605Z,8.32
2018-02-19T14:10:04.454Z,8.14
2018-02-19T14:12:30.585Z,8.15
2018-02-19T14:14:56.434Z,8.11
2018-02-19T14:17:22.289Z,8.15
2018-02-19T14:19:48.274Z,8.09
2018-02-19T14:22:14.128Z,8.08
2018-02-19T14:24:40.120Z,8.01
2018-02-19T14:27:06.000Z,7.95
2018-02-19T14:29:31.890Z,7.88
2018-02-19T14:31:57.837Z,7.90
2018-02-19T14:34:23.724Z,7.91
2018-02-19T14:36:49.626Z,7.89
2018-02-19T14:39:15.476Z,7.88
2018-02-19T14:41:41.374Z,8.03
2018-02-19T14:44:07.321Z,7.79
2018-02-19T14:46:33.169Z,7.83
2018-02-19T14:48:59.110Z,7.90
2018-02-19T14:51:25.013Z,7.85
2018-02-19T14:53:50.802Z,7.76
2018-02-19T14:56:16.776Z,7.49
2018-02-19T14:58:42.608Z,7.36
2018-02-19T15:01:08.496Z,7.21
2018-02-19T15:03:34.383Z,7.10
2018-02-19T15:06:00.229Z,6.96
2018-02-19T15:08:26.169Z,6.78
2018-02-19T15:10:52.056Z,6.68
2018-02-19T15:13:17.952Z,6.59
2018-02-19T15:15:43.813Z,6.58
2018-02-19T15:18:09.730Z,6.46
2018-02-19T15:20:35.673Z,6.49
2018-02-19T15:23:01.514Z,6.30
2018-02-19T15:25:27.465Z,6.13
2018-02-19T15:27:53.300Z,6.08
2018-02-19T15:30:19.229Z,6.00
2018-02-19T15:32:45.192Z,5.90
2018-02-19T15:35:11.034Z,5.86
2018-02-19T15:37:36.964Z,5.79
2018-02-19T15:40:02.852Z,5.65
2018-02-19T15:42:29.311Z,5.52
2018-02-19T15:44:55.305Z,5.55
2018-02-19T15:47:21.303Z,5.63
2018-02-19T15:49:47.197Z,5.51
2018-02-19T15:52:13.032Z,5.35
2018-02-19T15:54:38.952Z,5.24
2018-02-19T15:57:04.890Z,5.12
2018-02-19T15:59:30.734Z,5.00
2018-02-19T16:01:56.678Z,4.84
2018-02-19T16:04:23.019Z,4.76
2018-02-19T16:06:48.906Z,4.61
2018-02-19T16:09:14.876Z,4.63
2018-02-19T16:11:40.729Z,4.46
2018-02-19T16:14:06.620Z,4.34
2018-02-19T16:16:32.510Z,4.34
2018-02-19T16:18:58.453Z,4.27
2018-02-19T16:21:24.383Z,4.06
2018-02-19T16:23:50.424Z,3.99
2018-02-19T16:26:16.791Z,3.93
2018-02-19T16:28:42.730Z,3.79
2018-02-19T16:31:08.645Z,3.60
2018-02-19T16:33:34.580Z,3.66
2018-02-19T16:36:00.420Z,3.59
2018-02-19T16:38:26.660Z,3.65
2018-02-19T16:40:52.543Z,3.68
2018-02-19T16:43:18.389Z,3.66
2018-02-19T16:45:44.394Z,3.65
2018-02-19T16:48:10.820Z,3.55
2018-02-19T16:50:36.772Z,3.59
2018-02-19T16:53:02.717Z,3.61
2018-02-19T16:55:28.542Z,3.47
2018-02-19T16:57:54.518Z,3.51
2018-02-19T17:00:20.409Z,3.49
2018-02-19T17:02:46.320Z,3.51
2018-02-19T17:05:12.175Z,3.26
2018-02-19T17:07:38.368Z,3.26
2018-02-19T17:10:04.409Z,3.25
2018-02-19T17:12:30.266Z,3.11
2018-02-19T17:14:56.195Z,3.10
2018-02-19T17:17:22.028Z,3.12
2018-02-19T17:19:47.875Z,3.13
2018-02-19T17:22:14.633Z,3.16
2018-02-19T17:24:40.502Z,3.17
2018-02-19T17:27:06.387Z,3.07
2018-02-19T17:29:32.269Z,3.08
2018-02-19T17:31:58.116Z,3.06
2018-02-19T17:34:24.077Z,2.94
2018-02-19T17:36:49.976Z,2.98
2018-02-19T17:39:15.886Z,2.92
2018-02-19T17:41:41.724Z,2.76
2018-02-19T17:44:07.606Z,2.69
2018-02-19T17:46:33.528Z,2.69
2018-02-19T17:48:59.360Z,2.65
2018-02-19T17:51:25.306Z,2.58
2018-02-19T17:53:51.167Z,2.62
2018-02-19T17:56:17.022Z,2.57
2018-02-19T17:58:43.221Z,2.48
2018-02-19T18:01:09.072Z,2.42
2018-02-19T18:03:34.966Z,2.40
2018-02-19T18:06:00.874Z,2.35
2018-02-19T18:08:26.847Z,2.41
2018-02-19T18:10:52.790Z,2.38
2018-02-19T18:13:18.676Z,2.26
2018-02-19T18:15:44.569Z,2.33
2018-02-19T18:18:10.421Z,2.15
2018-02-19T18:20:36.318Z,2.06
2018-02-19T18:23:02.762Z,1.95
2018-02-19T18:25:28.623Z,1.89
2018-02-19T18:27:54.574Z,1.91
2018-02-19T18:30:20.413Z,1.75
2018-02-19T18:32:46.269Z,1.64
2018-02-19T18:35:12.612Z,1.58
2018-02-19T18:37:38.517Z,1.56
2018-02-19T18:40:04.434Z,1.50
2018-02-19T18:42:30.324Z,1.43
2018-02-19T18:44:56.179Z,1.37
2018-02-19T18:47:22.121Z,1.35
2018-02-19T18:49:48.012Z,1.33
2018-02-19T18:52:13.917Z,1.33
2018-02-19T18:54:39.773Z,1.22
2018-02-19T18:57:05.651Z,1.22
2018-02-19T18:59:31.584Z,1.14
2018-02-19T19:01:57.417Z,1.12
2018-02-19T19:04:23.391Z,1.14
2018-02-19T19:06:49.230Z,1.06
2018-02-19T19:09:27.419Z,1.12
2018-02-19T19:11:53.362Z,1.07
2018-02-19T19:14:19.200Z,1.02
2018-02-19T19:16:45.452Z,1.08
2018-02-19T19:19:11.313Z,1.01
2018-02-19T19:21:37.158Z,0.98
2018-02-19T19:24:03.178Z,0.94
2018-02-19T19:26:29.051Z,0.93
2018-02-19T19:28:54.954Z,0.92
2018-02-19T19:31:20.851Z,0.93
2018-02-19T19:33:46.697Z,0.93
2018-02-19T19:36:12.649Z,0.88
2018-02-19T19:38:38.537Z,0.88
2018-02-19T19:41:04.477Z,0.86
2018-02-19T19:43:30.365Z,0.86
2018-02-19T19:45:56.303Z,0.85
2018-02-19T19:48:22.229Z,0.80
2018-02-19T19:50:48.118Z,0.81
2018-02-19T19:53:14.072Z,0.82
2018-02-19T19:55:39.945Z,0.77
2018-02-19T19:58:05.795Z,0.71
2018-02-19T20:00:31.780Z,0.73
2018-02-19T20:02:57.640Z,0.74
2018-02-19T20:05:23.557Z,0.69
2018-02-19T20:07:49.447Z,0.66
2018-02-19T20:10:15.374Z,0.76
2018-02-19T20:12:41.369Z,0.74
2018-02-19T20:15:07.285Z,0.71
2018-02-19T20:17:33.182Z,0.77
2018-02-19T20:19:59.092Z,0.79
2018-02-19T20:22:24.976Z,0.81
2018-02-19T20:24:50.908Z,0.87
2018-02-19T20:27:16.771Z,0.84
2018-02-19T20:29:42.716Z,0.87
2018-02-19T20:32:08.562Z,0.85
2018-02-19T20:34:34.422Z,0.81
2018-02-19T20:37:00.430Z,0.76
2018-02-19T20:39:26.289Z,0.76
2018-02-19T20:41:52.205Z,0.78
2018-02-19T20:44:18.380Z,0.64
2018-02-19T20:46:44.244Z,0.54
2018-02-19T20:49:10.178Z,0.44
2018-02-19T20:51:36.075Z,0.35
2018-02-19T20:54:01.979Z,0.36
2018-02-19T20:56:27.830Z,0.28
2018-02-19T20:58:53.733Z,0.27
2018-02-19T21:01:19.686Z,0.12
2018-02-19T21:03:45.532Z,0.04
2018-02-19T21:06:11.456Z,-0.05
2018-02-19T21:08:37.313Z,-0.10
2018-02-19T21:11:03.204Z,-0.13
2018-02-19T21:13:29.153Z,-0.24
2018-02-19T21:15:54.984Z,-0.27
2018-02-19T21:18:20.877Z,-0.42
2018-02-19T21:20:47.357Z,-0.44
2018-02-19T21:23:13.208Z,-0.45
2018-02-19T21:25:39.153Z,-0.48
2018-02-19T21:28:05.063Z,-0.55
2018-02-19T21:30:31.753Z,-0.57
2018-02-19T21:32:59.870Z,-0.62
2018-02-19T21:35:25.757Z,-0.60
2018-02-19T21:37:51.701Z,-0.73
2018-02-19T21:40:17.547Z,-0.77
2018-02-19T21:42:43.512Z,-0.80
2018-02-19T21:45:09.348Z,-0.79
2018-02-19T21:47:35.201Z,-0.84
2018-02-19T21:50:01.481Z,-0.90
2018-02-19T21:52:27.336Z,-0.89
2018-02-19T21:54:53.236Z,-0.86
2018-02-19T21:57:19.484Z,-0.95
2018-02-19T21:59:45.336Z,-1.02
2018-02-19T22:02:11.263Z,-1.04
2018-02-19T22:04:37.136Z,-0.98
2018-02-19T22:07:03.035Z,-0.90
2018-02-19T22:09:28.879Z,-1.00
2018-02-19T22:11:54.778Z,-1.09
2018-02-19T22:14:20.716Z,-0.96
2018-02-19T22:16:46.556Z,-1.07
2018-02-19T22:19:12.783Z,-1.00
2018-02-19T22:21:38.628Z,-1.00
2018-02-19T22:24:04.472Z,-1.07
2018-02-19T22:26:30.466Z,-1.10
2018-02-19T22:28:56.321Z,-1.01
2018-02-19T22:31:22.211Z,-0.77
2018-02-19T22:33:48.376Z,-0.82
2018-02-19T22:36:14.230Z,-0.87
2018-02-19T22:38:40.176Z,-0.88
2018-02-19T22:41:06.076Z,-0.96
2018-02-19T22:43:31.977Z,-0.93
2018-02-19T22:45:57.874Z,-0.88
2018-02-19T22:48:23.748Z,-0.84
2018-02-19T22:50:49.703Z,-0.91
2018-02-19T22:53:15.556Z,-0.84
2018-02-19T22:55:41.809Z,-0.85
2018-02-19T22:58:07.704Z,-0.86
2018-02-19T23:00:33.694Z,-0.92
2018-02-19T23:02:59.700Z,-0.91
2018-02-19T23:05:25.549Z,-0.96
2018-02-19T23:07:51.980Z,-0.95
2018-02-19T23:10:17.929Z,-0.93
2018-02-19T23:12:44.074Z,-0.96
2018-02-19T23:15:10.494Z,-0.99
2018-02-19T23:17:36.779Z,-1.02
2018-02-19T23:20:02.970Z,-1.05
2018-02-19T23:22:29.338Z,-1.05
2018-02-19T23:24:55.628Z,-1.09
2018-02-19T23:27:21.629Z,-1.06
2018-02-19T23:29:47.473Z,-1.14
2018-02-19T23:32:13.613Z,-1.11
2018-02-19T23:34:39.460Z,-1.15
2018-02-19T23:37:05.300Z,-1.24
2018-02-19T23:39:31.289Z,-1.29
2018-02-19T23:41:57.145Z,-1.36
2018-02-19T23:44:22.994Z,-1.35
2018-02-19T23:46:48.878Z,-1.34
2018-02-19T23:49:14.728Z,-1.42
2018-02-19T23:51:40.661Z,-1.47
2018-02-19T23:54:06.577Z,-1.52
2018-02-19T23:56:32.430Z,-1.55
2018-02-19T23:58:58.280Z,-1.63
